No1 Tokuyama — JK5318 — position and weather

sailwx.info

Track history (hours):
 
Tides and Currents Weather Stations Pressure Air Temp Water Temp Dewpoint Dewpoint Depression Visibility Wind Speed Wind Dir Waves Ship Positions

No1 Tokuyama

Last reported at 2017-Nov-19 08:30 UTC. Time now 2017-Nov-19 08:45 UTC.
Position N 34°38' E 135°21'.

Length 110 m; draft 6.1 m.

Type: Cargo ship. MMSI: 431400487.

Date/timePositionNaut miles runAvg speedWind from/ knotsBaromVisibWave heightAir tempDewpointWater temp
2017-Nov-19 08:30N 34°38' E 135°21'5 9.3
2017-Nov-19 08:00N 34°39' E 135°26'0 0.4
2017-Nov-19 07:27N 34°39' E 135°27'0 0.0
2017-Nov-19 06:57N 34°39' E 135°27'0 0.0
2017-Nov-19 06:27N 34°39' E 135°27'0 0.0
2017-Nov-19 05:57N 34°39' E 135°27'0 0.0
2017-Nov-19 05:27N 34°39' E 135°27'0 0.0
2017-Nov-19 04:57N 34°39' E 135°27'0 0.0
2017-Nov-19 04:28N 34°39' E 135°27'1 1.8
2017-Nov-19 04:00N 34°39' E 135°26'510.4
2017-Nov-19 03:30N 34°36' E 135°20'612.3
2017-Nov-19 03:00N 34°35' E 135°13'612.7
2017-Nov-19 02:30N 34°35' E 135°05'611.1
2017-Nov-19 01:58N 34°36' E 134°58'  
2017-Nov-15 04:32N 34°36' E 134°53'111.0
2017-Nov-15 04:27N 34°36' E 134°54'510.5
2017-Nov-15 03:57N 34°37' E 135°00'4 9.3
2017-Nov-15 03:30N 34°36' E 135°05'611.4
2017-Nov-15 03:00N 34°36' E 135°12'612.1
2017-Nov-15 02:31N 34°37' E 135°19'611.3
2017-Nov-15 02:00N 34°39' E 135°25'1 2.4
2017-Nov-15 01:31N 34°39' E 135°27'0 0.0
2017-Nov-15 00:43N 34°39' E 135°27'0 0.0
2017-Nov-15 00:13N 34°39' E 135°27'0 0.0
2017-Nov-14 23:55N 34°39' E 135°27'0 0.0
2017-Nov-14 23:25N 34°39' E 135°27'0 0.0
2017-Nov-14 22:55N 34°39' E 135°27'0 0.0
2017-Nov-14 22:19N 34°39' E 135°27'0 0.0
2017-Nov-14 21:55N 34°39' E 135°27'0 0.0
2017-Nov-14 21:25N 34°39' E 135°27'0 0.0
2017-Nov-14 20:55N 34°39' E 135°27'0 0.0
2017-Nov-14 20:25N 34°39' E 135°27'0 0.0
2017-Nov-14 19:55N 34°39' E 135°27'0 0.0
2017-Nov-14 18:55N 34°39' E 135°27'0 0.0
2017-Nov-14 18:19N 34°39' E 135°27'0 0.0
2017-Nov-14 17:55N 34°39' E 135°27'0 0.0
2017-Nov-14 17:25N 34°39' E 135°27'0 0.0
2017-Nov-14 16:55N 34°39' E 135°27'0 0.0
2017-Nov-14 16:25N 34°39' E 135°27'0 0.0
2017-Nov-14 15:37N 34°39' E 135°27'0 0.0
2017-Nov-14 15:13N 34°39' E 135°27'0 0.0
2017-Nov-14 14:55N 34°39' E 135°27'0 0.0
2017-Nov-14 14:25N 34°39' E 135°27'0 0.0
2017-Nov-14 13:55N 34°39' E 135°27'0 0.0
2017-Nov-14 13:25N 34°39' E 135°27'0 0.0
2017-Nov-14 12:55N 34°39' E 135°27'0 0.0
2017-Nov-14 12:25N 34°39' E 135°27'0 0.0
2017-Nov-14 11:37N 34°39' E 135°27'0 0.0
2017-Nov-14 11:25N 34°39' E 135°27'0 0.0
2017-Nov-14 10:55N 34°39' E 135°27'0 0.0
2017-Nov-14 10:19N 34°39' E 135°27'0 0.0
2017-Nov-14 10:00N 34°39' E 135°27'1 2.8
2017-Nov-14 09:30N 34°39' E 135°25'5 9.2
2017-Nov-14 09:01N 34°36' E 135°20'1 1.7
2017-Nov-14 08:30N 34°35' E 135°20'1 2.9
2017-Nov-14 08:00N 34°36' E 135°19'510.1
2017-Nov-14 07:30N 34°35' E 135°12'611.7
2017-Nov-14 07:00N 34°35' E 135°05'510.3
2017-Nov-14 06:30N 34°37' E 134°60'  
2017-Nov-11 13:52N 34°31' E 134°39'613.2
2017-Nov-11 13:25N 34°33' E 134°46'512.9
2017-Nov-11 13:00N 34°35' E 134°52'612.0
2017-Nov-11 12:30N 34°37' E 134°59'510.1
2017-Nov-11 12:00N 34°36' E 135°04'612.6
2017-Nov-11 11:30N 34°36' E 135°12'713.2
2017-Nov-11 11:01N 34°37' E 135°20'611.4
2017-Nov-11 10:30N 34°39' E 135°26'0 0.4
2017-Nov-11 10:00N 34°39' E 135°27'0 0.0
2017-Nov-11 09:25N 34°39' E 135°27'0 0.0
2017-Nov-11 08:55N 34°39' E 135°27'0 0.0
2017-Nov-11 08:25N 34°39' E 135°27'0 0.0
2017-Nov-11 07:55N 34°39' E 135°27'0 0.0
2017-Nov-11 07:25N 34°39' E 135°27'0 0.0
2017-Nov-11 06:55N 34°39' E 135°27'0 0.0
2017-Nov-11 06:25N 34°39' E 135°27'0 0.0
2017-Nov-11 06:00N 34°39' E 135°27'4 7.6
2017-Nov-11 05:30N 34°38' E 135°22'612.1
2017-Nov-11 05:00N 34°35' E 135°15'612.9
2017-Nov-11 04:30N 34°35' E 135°08'611.0
2017-Nov-11 03:59N 34°37' E 135°01'510.0
2017-Nov-11 03:30N 34°36' E 134°55'811.7
2017-Nov-11 02:50N 34°40' E 134°47'  
Track history (hours):
 
Tides and Currents Weather Stations Pressure Air Temp Water Temp Dewpoint Dewpoint Depression Visibility Wind Speed Wind Dir Waves Ship Positions

No1 Tokuyama

Last reported at 2017-Nov-19 08:30 UTC. Time now 2017-Nov-19 08:45 UTC.
Position N 34°38' E 135°21'.

Length 110 m; draft 6.1 m.

Type: Cargo ship. MMSI: 431400487.

Date/timePositionNaut miles runAvg speedWind from/ knotsBaromVisibWave heightAir tempDewpointWater temp
2017-Nov-19 08:30N 34°38' E 135°21'5 9.3
2017-Nov-19 08:00N 34°39' E 135°26'0 0.4
2017-Nov-19 07:27N 34°39' E 135°27'0 0.0
2017-Nov-19 06:57N 34°39' E 135°27'0 0.0
2017-Nov-19 06:27N 34°39' E 135°27'0 0.0
2017-Nov-19 05:57N 34°39' E 135°27'0 0.0
2017-Nov-19 05:27N 34°39' E 135°27'0 0.0
2017-Nov-19 04:57N 34°39' E 135°27'0 0.0
2017-Nov-19 04:28N 34°39' E 135°27'1 1.8
2017-Nov-19 04:00N 34°39' E 135°26'510.4
2017-Nov-19 03:30N 34°36' E 135°20'612.3
2017-Nov-19 03:00N 34°35' E 135°13'612.7
2017-Nov-19 02:30N 34°35' E 135°05'611.1
2017-Nov-19 01:58N 34°36' E 134°58'  
2017-Nov-15 04:32N 34°36' E 134°53'111.0
2017-Nov-15 04:27N 34°36' E 134°54'510.5
2017-Nov-15 03:57N 34°37' E 135°00'4 9.3
2017-Nov-15 03:30N 34°36' E 135°05'611.4
2017-Nov-15 03:00N 34°36' E 135°12'612.1
2017-Nov-15 02:31N 34°37' E 135°19'611.3
2017-Nov-15 02:00N 34°39' E 135°25'1 2.4
2017-Nov-15 01:31N 34°39' E 135°27'0 0.0
2017-Nov-15 00:43N 34°39' E 135°27'0 0.0
2017-Nov-15 00:13N 34°39' E 135°27'0 0.0
2017-Nov-14 23:55N 34°39' E 135°27'0 0.0
2017-Nov-14 23:25N 34°39' E 135°27'0 0.0
2017-Nov-14 22:55N 34°39' E 135°27'0 0.0
2017-Nov-14 22:19N 34°39' E 135°27'0 0.0
2017-Nov-14 21:55N 34°39' E 135°27'0 0.0
2017-Nov-14 21:25N 34°39' E 135°27'0 0.0
2017-Nov-14 20:55N 34°39' E 135°27'0 0.0
2017-Nov-14 20:25N 34°39' E 135°27'0 0.0
2017-Nov-14 19:55N 34°39' E 135°27'0 0.0
2017-Nov-14 18:55N 34°39' E 135°27'0 0.0
2017-Nov-14 18:19N 34°39' E 135°27'0 0.0
2017-Nov-14 17:55N 34°39' E 135°27'0 0.0
2017-Nov-14 17:25N 34°39' E 135°27'0 0.0
2017-Nov-14 16:55N 34°39' E 135°27'0 0.0
2017-Nov-14 16:25N 34°39' E 135°27'0 0.0
2017-Nov-14 15:37N 34°39' E 135°27'0 0.0
2017-Nov-14 15:13N 34°39' E 135°27'0 0.0
2017-Nov-14 14:55N 34°39' E 135°27'0 0.0
2017-Nov-14 14:25N 34°39' E 135°27'0 0.0
2017-Nov-14 13:55N 34°39' E 135°27'0 0.0
2017-Nov-14 13:25N 34°39' E 135°27'0 0.0
2017-Nov-14 12:55N 34°39' E 135°27'0 0.0
2017-Nov-14 12:25N 34°39' E 135°27'0 0.0
2017-Nov-14 11:37N 34°39' E 135°27'0 0.0
2017-Nov-14 11:25N 34°39' E 135°27'0 0.0
2017-Nov-14 10:55N 34°39' E 135°27'0 0.0
2017-Nov-14 10:19N 34°39' E 135°27'0 0.0
2017-Nov-14 10:00N 34°39' E 135°27'1 2.8
2017-Nov-14 09:30N 34°39' E 135°25'5 9.2
2017-Nov-14 09:01N 34°36' E 135°20'1 1.7
2017-Nov-14 08:30N 34°35' E 135°20'1 2.9
2017-Nov-14 08:00N 34°36' E 135°19'510.1
2017-Nov-14 07:30N 34°35' E 135°12'611.7
2017-Nov-14 07:00N 34°35' E 135°05'510.3
2017-Nov-14 06:30N 34°37' E 134°60'  
2017-Nov-11 13:52N 34°31' E 134°39'613.2
2017-Nov-11 13:25N 34°33' E 134°46'512.9
2017-Nov-11 13:00N 34°35' E 134°52'612.0
2017-Nov-11 12:30N 34°37' E 134°59'510.1
2017-Nov-11 12:00N 34°36' E 135°04'612.6
2017-Nov-11 11:30N 34°36' E 135°12'713.2
2017-Nov-11 11:01N 34°37' E 135°20'611.4
2017-Nov-11 10:30N 34°39' E 135°26'0 0.4
2017-Nov-11 10:00N 34°39' E 135°27'0 0.0
2017-Nov-11 09:25N 34°39' E 135°27'0 0.0
2017-Nov-11 08:55N 34°39' E 135°27'0 0.0
2017-Nov-11 08:25N 34°39' E 135°27'0 0.0
2017-Nov-11 07:55N 34°39' E 135°27'0 0.0
2017-Nov-11 07:25N 34°39' E 135°27'0 0.0
2017-Nov-11 06:55N 34°39' E 135°27'0 0.0
2017-Nov-11 06:25N 34°39' E 135°27'0 0.0
2017-Nov-11 06:00N 34°39' E 135°27'4 7.6
2017-Nov-11 05:30N 34°38' E 135°22'612.1
2017-Nov-11 05:00N 34°35' E 135°15'612.9
2017-Nov-11 04:30N 34°35' E 135°08'611.0
2017-Nov-11 03:59N 34°37' E 135°01'510.0
2017-Nov-11 03:30N 34°36' E 134°55'811.7
2017-Nov-11 02:50N 34°40' E 134°47'  

Dump ship's entire track history